sensor_id;sensor_type;location;lat;lon;timestamp;pressure;altitude;pressure_sealevel;temperature;humidity
54872;BME280;43914;57.680;11.982;2023-05-19T00:00:02;102117.89;;;6.75;92.13
54872;BME280;43914;57.680;11.982;2023-05-19T00:02:28;102115.05;;;6.75;92.73
54872;BME280;43914;57.680;11.982;2023-05-19T00:04:59;102113.35;;;6.72;92.72
54872;BME280;43914;57.680;11.982;2023-05-19T00:07:29;102114.61;;;6.67;92.95
54872;BME280;43914;57.680;11.982;2023-05-19T00:09:56;102121.35;;;6.63;93.12
54872;BME280;43914;57.680;11.982;2023-05-19T00:12:22;102124.13;;;6.59;93.39
54872;BME280;43914;57.680;11.982;2023-05-19T00:14:47;102121.80;;;6.57;94.15
54872;BME280;43914;57.680;11.982;2023-05-19T00:17:13;102120.33;;;6.54;94.03
54872;BME280;43914;57.680;11.982;2023-05-19T00:19:41;102119.99;;;6.49;94.34
54872;BME280;43914;57.680;11.982;2023-05-19T00:22:09;102118.70;;;6.49;94.96
54872;BME280;43914;57.680;11.982;2023-05-19T00:24:35;102120.16;;;6.49;95.35
54872;BME280;43914;57.680;11.982;2023-05-19T00:27:00;102119.01;;;6.46;95.36
54872;BME280;43914;57.680;11.982;2023-05-19T00:29:26;102122.45;;;6.45;95.88
54872;BME280;43914;57.680;11.982;2023-05-19T00:31:51;102121.45;;;6.44;96.30
54872;BME280;43914;57.680;11.982;2023-05-19T00:34:17;102121.52;;;6.41;96.47
54872;BME280;43914;57.680;11.982;2023-05-19T00:36:42;102123.59;;;6.37;96.37
54872;BME280;43914;57.680;11.982;2023-05-19T00:39:08;102127.09;;;6.36;97.08
54872;BME280;43914;57.680;11.982;2023-05-19T00:41:33;102124.08;;;6.33;97.23
54872;BME280;43914;57.680;11.982;2023-05-19T00:43:58;102124.52;;;6.32;97.42
54872;BME280;43914;57.680;11.982;2023-05-19T00:46:24;102130.77;;;6.30;97.82
54872;BME280;43914;57.680;11.982;2023-05-19T00:48:50;102129.80;;;6.32;98.76
54872;BME280;43914;57.680;11.982;2023-05-19T00:51:15;102129.85;;;6.34;99.03
54872;BME280;43914;57.680;11.982;2023-05-19T00:53:41;102124.83;;;6.35;98.74
54872;BME280;43914;57.680;11.982;2023-05-19T00:56:12;102125.52;;;6.33;98.81
54872;BME280;43914;57.680;11.982;2023-05-19T00:58:38;102124.92;;;6.33;98.93
54872;BME280;43914;57.680;11.982;2023-05-19T01:01:04;102128.84;;;6.34;99.08
54872;BME280;43914;57.680;11.982;2023-05-19T01:03:33;102129.33;;;6.32;99.19
54872;BME280;43914;57.680;11.982;2023-05-19T01:06:00;102130.57;;;6.30;99.13
54872;BME280;43914;57.680;11.982;2023-05-19T01:08:30;102129.13;;;6.30;99.67
54872;BME280;43914;57.680;11.982;2023-05-19T01:10:57;102129.55;;;6.32;99.54
54872;BME280;43914;57.680;11.982;2023-05-19T01:13:23;102132.05;;;6.29;99.26
54872;BME280;43914;57.680;11.982;2023-05-19T01:30:39;102144.33;;;6.16;100.00
54872;BME280;43914;57.680;11.982;2023-05-19T01:33:08;102140.88;;;6.19;100.00
54872;BME280;43914;57.680;11.982;2023-05-19T01:35:36;102140.02;;;6.23;100.00
54872;BME280;43914;57.680;11.982;2023-05-19T01:38:04;102143.30;;;6.22;100.00
54872;BME280;43914;57.680;11.982;2023-05-19T01:40:32;102145.48;;;6.26;100.00
54872;BME280;43914;57.680;11.982;2023-05-19T01:42:59;102144.40;;;6.28;100.00
54872;BME280;43914;57.680;11.982;2023-05-19T01:45:27;102141.08;;;6.28;100.00
54872;BME280;43914;57.680;11.982;2023-05-19T01:47:56;102145.02;;;6.27;100.00
54872;BME280;43914;57.680;11.982;2023-05-19T01:50:22;102147.23;;;6.28;100.00
54872;BME280;43914;57.680;11.982;2023-05-19T01:52:47;102154.29;;;6.27;100.00
54872;BME280;43914;57.680;11.982;2023-05-19T01:55:13;102151.06;;;6.23;100.00
54872;BME280;43914;57.680;11.982;2023-05-19T02:09:02;102155.05;;;5.98;100.00
54872;BME280;43914;57.680;11.982;2023-05-19T02:11:36;102152.83;;;5.97;100.00
54872;BME280;43914;57.680;11.982;2023-05-19T02:14:08;102153.17;;;5.97;100.00
54872;BME280;43914;57.680;11.982;2023-05-19T02:16:37;102156.13;;;5.94;100.00
54872;BME280;43914;57.680;11.982;2023-05-19T02:19:03;102155.10;;;5.90;100.00
54872;BME280;43914;57.680;11.982;2023-05-19T02:21:29;102152.28;;;5.86;100.00
54872;BME280;43914;57.680;11.982;2023-05-19T02:23:55;102152.13;;;5.81;100.00
54872;BME280;43914;57.680;11.982;2023-05-19T02:26:20;102154.17;;;5.77;100.00
54872;BME280;43914;57.680;11.982;2023-05-19T02:28:46;102153.69;;;5.76;100.00
54872;BME280;43914;57.680;11.982;2023-05-19T02:31:12;102150.42;;;5.77;100.00
54872;BME280;43914;57.680;11.982;2023-05-19T02:33:37;102148.80;;;5.83;100.00
54872;BME280;43914;57.680;11.982;2023-05-19T02:36:04;102146.45;;;5.83;100.00
54872;BME280;43914;57.680;11.982;2023-05-19T02:38:29;102145.42;;;5.77;100.00
54872;BME280;43914;57.680;11.982;2023-05-19T02:40:55;102148.11;;;5.73;100.00
54872;BME280;43914;57.680;11.982;2023-05-19T02:43:21;102148.82;;;5.72;100.00
54872;BME280;43914;57.680;11.982;2023-05-19T02:45:46;102146.59;;;5.71;100.00
54872;BME280;43914;57.680;11.982;2023-05-19T02:48:11;102145.74;;;5.71;100.00
54872;BME280;43914;57.680;11.982;2023-05-19T02:50:37;102148.73;;;5.71;100.00
54872;BME280;43914;57.680;11.982;2023-05-19T02:53:03;102154.31;;;5.73;100.00
54872;BME280;43914;57.680;11.982;2023-05-19T02:55:29;102150.19;;;5.73;100.00
54872;BME280;43914;57.680;11.982;2023-05-19T02:57:54;102151.48;;;5.75;100.00
54872;BME280;43914;57.680;11.982;2023-05-19T03:00:20;102151.56;;;5.74;100.00
54872;BME280;43914;57.680;11.982;2023-05-19T03:02:45;102147.05;;;5.72;100.00
54872;BME280;43914;57.680;11.982;2023-05-19T03:05:11;102150.63;;;5.72;100.00
54872;BME280;43914;57.680;11.982;2023-05-19T03:07:38;102148.36;;;5.71;100.00
54872;BME280;43914;57.680;11.982;2023-05-19T03:10:04;102147.70;;;5.71;100.00
54872;BME280;43914;57.680;11.982;2023-05-19T03:12:31;102146.50;;;5.70;100.00
54872;BME280;43914;57.680;11.982;2023-05-19T03:14:58;102148.75;;;5.73;100.00
54872;BME280;43914;57.680;11.982;2023-05-19T03:17:24;102149.90;;;5.75;100.00
54872;BME280;43914;57.680;11.982;2023-05-19T03:19:49;102150.51;;;5.76;100.00
54872;BME280;43914;57.680;11.982;2023-05-19T03:22:16;102147.45;;;5.76;100.00
54872;BME280;43914;57.680;11.982;2023-05-19T03:24:43;102147.98;;;5.76;100.00
54872;BME280;43914;57.680;11.982;2023-05-19T03:27:09;102150.34;;;5.76;100.00
54872;BME280;43914;57.680;11.982;2023-05-19T03:29:35;102153.75;;;5.75;100.00
54872;BME280;43914;57.680;11.982;2023-05-19T03:32:01;102148.66;;;5.74;100.00
54872;BME280;43914;57.680;11.982;2023-05-19T03:34:26;102149.34;;;5.75;100.00
54872;BME280;43914;57.680;11.982;2023-05-19T03:36:52;102155.05;;;5.82;100.00
54872;BME280;43914;57.680;11.982;2023-05-19T03:39:17;102151.51;;;5.86;100.00
54872;BME280;43914;57.680;11.982;2023-05-19T03:41:43;102153.74;;;5.87;100.00
54872;BME280;43914;57.680;11.982;2023-05-19T03:44:09;102158.27;;;5.89;100.00
54872;BME280;43914;57.680;11.982;2023-05-19T03:46:34;102158.19;;;5.90;100.00
54872;BME280;43914;57.680;11.982;2023-05-19T03:48:59;102162.04;;;5.91;100.00
54872;BME280;43914;57.680;11.982;2023-05-19T03:51:25;102163.47;;;5.90;100.00
54872;BME280;43914;57.680;11.982;2023-05-19T03:53:52;102161.33;;;5.90;100.00
54872;BME280;43914;57.680;11.982;2023-05-19T03:56:18;102161.62;;;5.94;100.00
54872;BME280;43914;57.680;11.982;2023-05-19T03:58:47;102161.15;;;5.98;100.00
54872;BME280;43914;57.680;11.982;2023-05-19T04:01:14;102158.02;;;6.02;100.00
54872;BME280;43914;57.680;11.982;2023-05-19T04:03:39;102160.33;;;6.09;100.00
54872;BME280;43914;57.680;11.982;2023-05-19T04:06:05;102160.30;;;6.14;100.00
54872;BME280;43914;57.680;11.982;2023-05-19T04:08:30;102160.54;;;6.18;100.00
54872;BME280;43914;57.680;11.982;2023-05-19T04:10:56;102160.73;;;6.22;100.00
54872;BME280;43914;57.680;11.982;2023-05-19T04:13:21;102160.40;;;6.26;100.00
54872;BME280;43914;57.680;11.982;2023-05-19T04:15:47;102160.72;;;6.29;100.00
54872;BME280;43914;57.680;11.982;2023-05-19T04:18:12;102167.46;;;6.29;100.00
54872;BME280;43914;57.680;11.982;2023-05-19T04:20:38;102166.61;;;6.31;100.00
54872;BME280;43914;57.680;11.982;2023-05-19T04:23:03;102170.32;;;6.33;100.00
54872;BME280;43914;57.680;11.982;2023-05-19T04:25:28;102167.41;;;6.34;100.00
54872;BME280;43914;57.680;11.982;2023-05-19T04:27:54;102165.60;;;6.40;100.00
54872;BME280;43914;57.680;11.982;2023-05-19T04:30:23;102165.95;;;6.44;100.00
54872;BME280;43914;57.680;11.982;2023-05-19T04:32:48;102163.85;;;6.48;100.00
54872;BME280;43914;57.680;11.982;2023-05-19T04:35:17;102167.85;;;6.54;100.00
54872;BME280;43914;57.680;11.982;2023-05-19T04:37:44;102169.82;;;6.58;100.00
54872;BME280;43914;57.680;11.982;2023-05-19T04:40:12;102169.68;;;6.62;100.00
54872;BME280;43914;57.680;11.982;2023-05-19T04:42:38;102173.13;;;6.66;100.00
54872;BME280;43914;57.680;11.982;2023-05-19T04:45:10;102176.82;;;6.73;100.00
54872;BME280;43914;57.680;11.982;2023-05-19T04:47:38;102176.17;;;6.82;100.00
54872;BME280;43914;57.680;11.982;2023-05-19T04:50:04;102176.60;;;6.87;100.00
54872;BME280;43914;57.680;11.982;2023-05-19T04:52:31;102175.20;;;6.91;100.00
54872;BME280;43914;57.680;11.982;2023-05-19T04:54:57;102182.23;;;6.99;100.00
54872;BME280;43914;57.680;11.982;2023-05-19T04:57:22;102181.65;;;7.04;100.00
54872;BME280;43914;57.680;11.982;2023-05-19T04:59:48;102177.83;;;7.07;100.00
54872;BME280;43914;57.680;11.982;2023-05-19T05:02:14;102173.48;;;7.13;100.00
54872;BME280;43914;57.680;11.982;2023-05-19T05:04:40;102177.13;;;7.20;100.00
54872;BME280;43914;57.680;11.982;2023-05-19T05:07:09;102177.27;;;7.25;100.00
54872;BME280;43914;57.680;11.982;2023-05-19T05:09:35;102176.89;;;7.32;100.00
54872;BME280;43914;57.680;11.982;2023-05-19T05:12:01;102174.05;;;7.39;100.00
54872;BME280;43914;57.680;11.982;2023-05-19T05:14:27;102176.44;;;7.46;99.99
54872;BME280;43914;57.680;11.982;2023-05-19T05:16:53;102174.96;;;7.53;100.00
54872;BME280;43914;57.680;11.982;2023-05-19T05:19:18;102173.01;;;7.60;99.89
54872;BME280;43914;57.680;11.982;2023-05-19T05:21:47;102178.69;;;7.69;99.79
54872;BME280;43914;57.680;11.982;2023-05-19T05:24:13;102173.81;;;7.76;99.57
54872;BME280;43914;57.680;11.982;2023-05-19T05:26:38;102178.06;;;7.83;99.24
54872;BME280;43914;57.680;11.982;2023-05-19T05:29:04;102181.14;;;7.90;99.06
54872;BME280;43914;57.680;11.982;2023-05-19T05:31:30;102178.51;;;7.98;98.77
54872;BME280;43914;57.680;11.982;2023-05-19T05:33:56;102183.50;;;8.07;98.53
54872;BME280;43914;57.680;11.982;2023-05-19T05:36:21;102183.67;;;8.16;98.20
54872;BME280;43914;57.680;11.982;2023-05-19T05:38:47;102182.64;;;8.23;97.76
54872;BME280;43914;57.680;11.982;2023-05-19T05:41:12;102181.95;;;8.29;97.50
54872;BME280;43914;57.680;11.982;2023-05-19T05:43:38;102184.42;;;8.38;97.35
54872;BME280;43914;57.680;11.982;2023-05-19T05:46:03;102185.02;;;8.46;96.92
54872;BME280;43914;57.680;11.982;2023-05-19T05:48:29;102190.92;;;8.52;96.43
54872;BME280;43914;57.680;11.982;2023-05-19T05:50:56;102187.66;;;8.59;96.49
54872;BME280;43914;57.680;11.982;2023-05-19T05:53:23;102188.50;;;8.68;96.11
54872;BME280;43914;57.680;11.982;2023-05-19T05:55:49;102193.29;;;8.74;95.78
54872;BME280;43914;57.680;11.982;2023-05-19T05:58:15;102191.45;;;8.81;95.49
54872;BME280;43914;57.680;11.982;2023-05-19T06:00:42;102190.09;;;8.88;95.12
54872;BME280;43914;57.680;11.982;2023-05-19T06:03:08;102193.33;;;8.96;95.06
54872;BME280;43914;57.680;11.982;2023-05-19T06:05:35;102193.23;;;9.05;95.05
54872;BME280;43914;57.680;11.982;2023-05-19T06:08:01;102191.73;;;9.14;95.04
54872;BME280;43914;57.680;11.982;2023-05-19T06:10:29;102192.73;;;9.25;94.99
54872;BME280;43914;57.680;11.982;2023-05-19T06:12:55;102188.52;;;9.33;94.82
54872;BME280;43914;57.680;11.982;2023-05-19T06:15:21;102191.64;;;9.41;94.68
54872;BME280;43914;57.680;11.982;2023-05-19T06:17:46;102193.30;;;9.50;94.85
54872;BME280;43914;57.680;11.982;2023-05-19T06:20:12;102195.52;;;9.59;94.57
54872;BME280;43914;57.680;11.982;2023-05-19T06:22:38;102196.46;;;9.64;94.35
54872;BME280;43914;57.680;11.982;2023-05-19T06:25:05;102198.88;;;9.71;94.39
54872;BME280;43914;57.680;11.982;2023-05-19T06:27:31;102202.10;;;9.79;93.97
54872;BME280;43914;57.680;11.982;2023-05-19T06:29:56;102200.91;;;9.88;94.03
54872;BME280;43914;57.680;11.982;2023-05-19T06:32:22;102201.95;;;9.98;94.19
54872;BME280;43914;57.680;11.982;2023-05-19T06:34:47;102202.98;;;10.08;93.79
54872;BME280;43914;57.680;11.982;2023-05-19T06:37:22;102202.59;;;10.15;93.05
54872;BME280;43914;57.680;11.982;2023-05-19T06:39:51;102207.61;;;10.20;91.17
54872;BME280;43914;57.680;11.982;2023-05-19T06:42:18;102207.52;;;10.27;90.43
54872;BME280;43914;57.680;11.982;2023-05-19T06:44:54;102208.58;;;10.34;89.73
54872;BME280;43914;57.680;11.982;2023-05-19T06:47:19;102205.38;;;10.42;89.76
54872;BME280;43914;57.680;11.982;2023-05-19T06:49:45;102207.60;;;10.49;89.77
54872;BME280;43914;57.680;11.982;2023-05-19T06:52:15;102206.36;;;10.56;88.53
54872;BME280;43914;57.680;11.982;2023-05-19T06:54:41;102205.49;;;10.63;88.27
54872;BME280;43914;57.680;11.982;2023-05-19T06:57:06;102209.38;;;10.73;87.48
54872;BME280;43914;57.680;11.982;2023-05-19T06:59:31;102209.02;;;10.79;86.73
54872;BME280;43914;57.680;11.982;2023-05-19T07:01:57;102216.77;;;10.86;86.44
54872;BME280;43914;57.680;11.982;2023-05-19T07:04:22;102224.10;;;10.90;84.42
54872;BME280;43914;57.680;11.982;2023-05-19T07:06:48;102216.11;;;10.89;83.97
54872;BME280;43914;57.680;11.982;2023-05-19T07:09:14;102220.61;;;10.91;84.31
54872;BME280;43914;57.680;11.982;2023-05-19T07:11:41;102223.06;;;10.95;84.20
54872;BME280;43914;57.680;11.982;2023-05-19T07:14:06;102219.04;;;10.96;83.85
54872;BME280;43914;57.680;11.982;2023-05-19T07:16:32;102222.14;;;10.97;82.90
54872;BME280;43914;57.680;11.982;2023-05-19T07:18:57;102223.30;;;11.00;81.94
54872;BME280;43914;57.680;11.982;2023-05-19T07:21:23;102222.27;;;11.03;81.97
54872;BME280;43914;57.680;11.982;2023-05-19T07:23:48;102226.48;;;11.08;82.70
54872;BME280;43914;57.680;11.982;2023-05-19T07:26:14;102221.83;;;11.11;82.45
54872;BME280;43914;57.680;11.982;2023-05-19T07:28:39;102224.70;;;11.15;82.75
54872;BME280;43914;57.680;11.982;2023-05-19T07:31:06;102223.77;;;11.17;82.59
54872;BME280;43914;57.680;11.982;2023-05-19T07:33:32;102224.77;;;11.20;82.98
54872;BME280;43914;57.680;11.982;2023-05-19T07:35:57;102224.67;;;11.26;83.52
54872;BME280;43914;57.680;11.982;2023-05-19T07:38:23;102225.98;;;11.33;83.75
54872;BME280;43914;57.680;11.982;2023-05-19T07:40:48;102228.48;;;11.41;83.29
54872;BME280;43914;57.680;11.982;2023-05-19T07:43:14;102227.91;;;11.43;82.69
54872;BME280;43914;57.680;11.982;2023-05-19T07:45:39;102229.85;;;11.47;82.50
54872;BME280;43914;57.680;11.982;2023-05-19T07:48:05;102226.66;;;11.52;81.98
54872;BME280;43914;57.680;11.982;2023-05-19T07:50:30;102224.09;;;11.60;81.77
54872;BME280;43914;57.680;11.982;2023-05-19T07:52:56;102227.15;;;11.69;81.49
54872;BME280;43914;57.680;11.982;2023-05-19T07:55:21;102226.11;;;11.76;80.75
54872;BME280;43914;57.680;11.982;2023-05-19T07:57:48;102224.54;;;11.80;80.21
54872;BME280;43914;57.680;11.982;2023-05-19T08:00:15;102223.27;;;11.84;79.26
54872;BME280;43914;57.680;11.982;2023-05-19T08:02:42;102224.77;;;11.89;78.81
54872;BME280;43914;57.680;11.982;2023-05-19T08:05:08;102221.70;;;11.93;78.69
54872;BME280;43914;57.680;11.982;2023-05-19T08:07:34;102218.73;;;12.01;78.28
54872;BME280;43914;57.680;11.982;2023-05-19T08:09:59;102215.40;;;12.07;78.05
54872;BME280;43914;57.680;11.982;2023-05-19T08:12:25;102214.52;;;12.14;77.29
54872;BME280;43914;57.680;11.982;2023-05-19T08:14:50;102208.25;;;12.16;76.62
54872;BME280;43914;57.680;11.982;2023-05-19T08:17:16;102210.84;;;12.20;76.61
54872;BME280;43914;57.680;11.982;2023-05-19T08:19:42;102207.27;;;12.27;75.64
54872;BME280;43914;57.680;11.982;2023-05-19T08:22:07;102209.00;;;12.35;75.51
54872;BME280;43914;57.680;11.982;2023-05-19T08:24:33;102210.86;;;12.41;74.67
54872;BME280;43914;57.680;11.982;2023-05-19T08:26:58;102207.55;;;12.43;73.82
54872;BME280;43914;57.680;11.982;2023-05-19T08:29:24;102211.64;;;12.48;73.60
54872;BME280;43914;57.680;11.982;2023-05-19T08:31:49;102210.60;;;12.51;73.44
54872;BME280;43914;57.680;11.982;2023-05-19T08:34:17;102216.27;;;12.53;73.17
54872;BME280;43914;57.680;11.982;2023-05-19T08:36:43;102214.83;;;12.53;73.16
54872;BME280;43914;57.680;11.982;2023-05-19T08:39:10;102219.80;;;12.57;72.97
54872;BME280;43914;57.680;11.982;2023-05-19T08:41:36;102221.65;;;12.58;72.44
54872;BME280;43914;57.680;11.982;2023-05-19T08:44:02;102219.41;;;12.61;72.70
54872;BME280;43914;57.680;11.982;2023-05-19T08:46:28;102218.22;;;12.64;72.73
54872;BME280;43914;57.680;11.982;2023-05-19T08:48:57;102217.09;;;12.68;72.72
54872;BME280;43914;57.680;11.982;2023-05-19T08:54:32;102213.95;;;12.82;72.56
54872;BME280;43914;57.680;11.982;2023-05-19T08:57:01;102213.67;;;12.81;71.96
54872;BME280;43914;57.680;11.982;2023-05-19T08:59:27;102214.94;;;12.86;72.36
54872;BME280;43914;57.680;11.982;2023-05-19T09:01:54;102214.17;;;13.01;72.44
54872;BME280;43914;57.680;11.982;2023-05-19T09:04:19;102216.27;;;13.13;72.34
54872;BME280;43914;57.680;11.982;2023-05-19T09:06:45;102215.30;;;13.22;71.29
54872;BME280;43914;57.680;11.982;2023-05-19T09:09:11;102222.00;;;13.29;70.44
54872;BME280;43914;57.680;11.982;2023-05-19T09:11:36;102216.44;;;13.34;70.47
54872;BME280;43914;57.680;11.982;2023-05-19T09:14:03;102212.92;;;13.39;70.09
54872;BME280;43914;57.680;11.982;2023-05-19T09:16:29;102210.83;;;13.44;69.51
54872;BME280;43914;57.680;11.982;2023-05-19T09:18:58;102212.47;;;13.49;69.36
54872;BME280;43914;57.680;11.982;2023-05-19T09:21:31;102214.33;;;13.53;69.07
54872;BME280;43914;57.680;11.982;2023-05-19T09:24:04;102212.62;;;13.58;68.72
54872;BME280;43914;57.680;11.982;2023-05-19T09:26:37;102210.80;;;13.63;68.84
54872;BME280;43914;57.680;11.982;2023-05-19T09:29:13;102209.07;;;13.69;68.42
54872;BME280;43914;57.680;11.982;2023-05-19T09:31:47;102207.58;;;13.71;68.32
54872;BME280;43914;57.680;11.982;2023-05-19T09:34:13;102214.06;;;13.81;68.68
54872;BME280;43914;57.680;11.982;2023-05-19T09:36:39;102217.95;;;13.83;68.14
54872;BME280;43914;57.680;11.982;2023-05-19T09:39:18;102216.92;;;13.82;68.05
54872;BME280;43914;57.680;11.982;2023-05-19T09:41:44;102217.38;;;13.82;68.34
54872;BME280;43914;57.680;11.982;2023-05-19T09:46:47;102207.88;;;13.83;69.56
54872;BME280;43914;57.680;11.982;2023-05-19T09:49:25;102207.23;;;13.94;69.46
54872;BME280;43914;57.680;11.982;2023-05-19T09:51:57;102207.74;;;14.09;69.81
54872;BME280;43914;57.680;11.982;2023-05-19T09:54:24;102211.35;;;14.20;69.26
54872;BME280;43914;57.680;11.982;2023-05-19T09:56:58;102212.84;;;14.21;68.84
54872;BME280;43914;57.680;11.982;2023-05-19T09:59:26;102212.93;;;14.19;69.16
54872;BME280;43914;57.680;11.982;2023-05-19T10:01:56;102206.88;;;14.21;69.32
54872;BME280;43914;57.680;11.982;2023-05-19T10:04:24;102212.13;;;14.29;69.20
54872;BME280;43914;57.680;11.982;2023-05-19T10:06:51;102200.63;;;14.24;69.04
54872;BME280;43914;57.680;11.982;2023-05-19T10:09:25;102202.38;;;14.22;69.23
54872;BME280;43914;57.680;11.982;2023-05-19T10:11:53;102205.91;;;14.21;68.38
54872;BME280;43914;57.680;11.982;2023-05-19T10:14:26;102206.18;;;14.13;68.48
54872;BME280;43914;57.680;11.982;2023-05-19T10:16:53;102208.73;;;14.11;68.68
54872;BME280;43914;57.680;11.982;2023-05-19T10:19:21;102204.41;;;14.01;68.97
54872;BME280;43914;57.680;11.982;2023-05-19T10:21:48;102204.17;;;13.92;69.17
54872;BME280;43914;57.680;11.982;2023-05-19T10:24:16;102197.85;;;13.82;69.27
54872;BME280;43914;57.680;11.982;2023-05-19T10:29:19;102199.77;;;13.84;69.43
54872;BME280;43914;57.680;11.982;2023-05-19T10:31:47;102200.86;;;14.01;69.67
54872;BME280;43914;57.680;11.982;2023-05-19T10:39:32;102196.07;;;14.36;67.78
54872;BME280;43914;57.680;11.982;2023-05-19T10:42:37;102195.23;;;14.42;67.48
54872;BME280;43914;57.680;11.982;2023-05-19T10:45:16;102201.16;;;14.47;66.46
54872;BME280;43914;57.680;11.982;2023-05-19T10:47:43;102193.20;;;14.50;66.37
54872;BME280;43914;57.680;11.982;2023-05-19T10:50:09;102201.80;;;14.57;65.80
54872;BME280;43914;57.680;11.982;2023-05-19T10:52:39;102202.17;;;14.60;65.27
54872;BME280;43914;57.680;11.982;2023-05-19T10:55:09;102200.71;;;14.68;64.82
54872;BME280;43914;57.680;11.982;2023-05-19T10:58:08;102200.99;;;14.74;64.06
54872;BME280;43914;57.680;11.982;2023-05-19T11:00:33;102197.90;;;14.82;63.98
54872;BME280;43914;57.680;11.982;2023-05-19T11:03:12;102196.67;;;14.92;63.37
54872;BME280;43914;57.680;11.982;2023-05-19T11:05:38;102194.23;;;15.03;63.12
54872;BME280;43914;57.680;11.982;2023-05-19T11:08:05;102191.98;;;15.12;62.15
54872;BME280;43914;57.680;11.982;2023-05-19T11:10:32;102199.53;;;15.11;60.77
54872;BME280;43914;57.680;11.982;2023-05-19T11:12:58;102195.77;;;15.07;59.97
54872;BME280;43914;57.680;11.982;2023-05-19T11:15:25;102187.94;;;15.08;60.26
54872;BME280;43914;57.680;11.982;2023-05-19T11:17:54;102192.25;;;15.19;60.75
54872;BME280;43914;57.680;11.982;2023-05-19T11:20:25;102197.41;;;15.32;59.50
54872;BME280;43914;57.680;11.982;2023-05-19T11:28:11;102192.42;;;15.42;57.74
54872;BME280;43914;57.680;11.982;2023-05-19T11:30:41;102195.68;;;15.47;57.70
54872;BME280;43914;57.680;11.982;2023-05-19T11:33:08;102195.77;;;15.47;57.05
54872;BME280;43914;57.680;11.982;2023-05-19T11:35:33;102193.49;;;15.49;57.18
54872;BME280;43914;57.680;11.982;2023-05-19T11:38:00;102191.57;;;15.51;56.36
54872;BME280;43914;57.680;11.982;2023-05-19T11:40:25;102196.41;;;15.52;55.25
54872;BME280;43914;57.680;11.982;2023-05-19T11:42:51;102192.71;;;15.49;55.26
54872;BME280;43914;57.680;11.982;2023-05-19T11:45:23;102193.75;;;15.54;55.26
54872;BME280;43914;57.680;11.982;2023-05-19T11:47:49;102196.14;;;15.57;54.84
54872;BME280;43914;57.680;11.982;2023-05-19T11:50:15;102187.95;;;15.61;54.44
54872;BME280;43914;57.680;11.982;2023-05-19T11:52:44;102180.50;;;15.72;54.66
54872;BME280;43914;57.680;11.982;2023-05-19T11:55:18;102181.96;;;15.89;53.73
54872;BME280;43914;57.680;11.982;2023-05-19T12:00:21;102183.79;;;16.10;52.08
54872;BME280;43914;57.680;11.982;2023-05-19T12:02:47;102177.63;;;16.18;51.55
54872;BME280;43914;57.680;11.982;2023-05-19T12:05:23;102184.21;;;16.29;51.14
54872;BME280;43914;57.680;11.982;2023-05-19T12:07:50;102177.59;;;16.33;50.54
54872;BME280;43914;57.680;11.982;2023-05-19T12:10:23;102175.52;;;16.34;50.22
54872;BME280;43914;57.680;11.982;2023-05-19T12:12:50;102175.67;;;16.46;50.07
54872;BME280;43914;57.680;11.982;2023-05-19T12:15:20;102177.07;;;16.59;49.55
54872;BME280;43914;57.680;11.982;2023-05-19T12:17:49;102179.88;;;16.72;48.91
54872;BME280;43914;57.680;11.982;2023-05-19T12:20:17;102180.27;;;16.85;48.59
54872;BME280;43914;57.680;11.982;2023-05-19T12:22:45;102183.62;;;16.97;47.32
54872;BME280;43914;57.680;11.982;2023-05-19T12:25:14;102182.55;;;17.04;47.15
54872;BME280;43914;57.680;11.982;2023-05-19T12:27:41;102182.72;;;17.08;46.37
54872;BME280;43914;57.680;11.982;2023-05-19T12:30:08;102179.28;;;17.15;46.40
54872;BME280;43914;57.680;11.982;2023-05-19T12:32:34;102173.27;;;17.36;47.52
54872;BME280;43914;57.680;11.982;2023-05-19T12:35:03;102175.55;;;17.68;47.21
54872;BME280;43914;57.680;11.982;2023-05-19T12:37:30;102176.34;;;17.90;45.93
54872;BME280;43914;57.680;11.982;2023-05-19T12:39:56;102177.73;;;18.00;44.46
54872;BME280;43914;57.680;11.982;2023-05-19T12:42:22;102165.82;;;18.08;44.61
54872;BME280;43914;57.680;11.982;2023-05-19T12:44:53;102169.67;;;18.23;44.15
54872;BME280;43914;57.680;11.982;2023-05-19T12:47:19;102168.92;;;18.35;43.84
54872;BME280;43914;57.680;11.982;2023-05-19T12:49:54;102161.90;;;18.45;43.40
54872;BME280;43914;57.680;11.982;2023-05-19T12:52:23;102161.77;;;18.62;43.11
54872;BME280;43914;57.680;11.982;2023-05-19T12:54:49;102160.71;;;18.69;42.62
54872;BME280;43914;57.680;11.982;2023-05-19T12:57:16;102156.44;;;18.80;43.13
54872;BME280;43914;57.680;11.982;2023-05-19T12:59:42;102156.81;;;19.06;42.64
54872;BME280;43914;57.680;11.982;2023-05-19T13:02:07;102159.81;;;19.17;41.53
54872;BME280;43914;57.680;11.982;2023-05-19T13:04:33;102154.29;;;19.21;41.87
54872;BME280;43914;57.680;11.982;2023-05-19T13:06:59;102158.06;;;19.25;41.30
54872;BME280;43914;57.680;11.982;2023-05-19T13:09:24;102159.11;;;19.32;41.74
54872;BME280;43914;57.680;11.982;2023-05-19T13:11:50;102155.86;;;19.46;41.45
54872;BME280;43914;57.680;11.982;2023-05-19T13:14:18;102160.46;;;19.60;41.19
54872;BME280;43914;57.680;11.982;2023-05-19T13:16:44;102152.83;;;19.72;40.82
54872;BME280;43914;57.680;11.982;2023-05-19T13:19:13;102158.27;;;19.84;40.24
54872;BME280;43914;57.680;11.982;2023-05-19T13:21:38;102153.00;;;19.90;40.22
54872;BME280;43914;57.680;11.982;2023-05-19T13:24:04;102155.10;;;19.91;39.80
54872;BME280;43914;57.680;11.982;2023-05-19T13:26:30;102151.72;;;19.83;39.97
54872;BME280;43914;57.680;11.982;2023-05-19T13:28:55;102153.95;;;19.87;40.25